createdAt,value
2017-01-31T00:00:23.138Z,83.97
2017-01-31T00:00:49.259Z,84.17
2017-01-31T00:01:15.422Z,84.17
2017-01-31T00:01:41.563Z,84.64
2017-01-31T00:02:07.655Z,84.26
2017-01-31T00:02:33.812Z,83.78
2017-01-31T00:02:59.971Z,84.17
2017-01-31T00:03:26.620Z,84.07
2017-01-31T00:03:52.733Z,84.36
2017-01-31T00:04:18.888Z,83.69
2017-01-31T00:04:45.041Z,83.97
2017-01-31T00:05:11.185Z,84.07
2017-01-31T00:05:37.321Z,83.97
2017-01-31T00:06:03.453Z,83.97
2017-01-31T00:06:29.619Z,84.64
2017-01-31T00:06:55.761Z,84.26
2017-01-31T00:07:21.902Z,84.64
2017-01-31T00:07:48.061Z,84.07
2017-01-31T00:08:14.210Z,83.97
2017-01-31T00:08:40.349Z,83.78
2017-01-31T00:09:06.497Z,83.69
2017-01-31T00:09:32.597Z,83.97
2017-01-31T00:09:58.726Z,84.26
2017-01-31T00:10:24.815Z,84.17
2017-01-31T00:10:50.963Z,84.17
2017-01-31T00:11:17.437Z,83.97
2017-01-31T00:11:43.548Z,83.78
2017-01-31T00:12:09.722Z,84.26
2017-01-31T00:12:35.882Z,83.97
2017-01-31T00:13:02.032Z,84.17
2017-01-31T00:13:28.185Z,83.97
2017-01-31T00:13:54.344Z,84.07
2017-01-31T00:14:20.472Z,84.07
2017-01-31T00:14:46.616Z,84.07
2017-01-31T00:15:12.807Z,84.26
2017-01-31T00:15:38.975Z,83.78
2017-01-31T00:16:05.117Z,83.78
2017-01-31T00:16:31.271Z,84.26
2017-01-31T00:16:57.378Z,84.36
2017-01-31T00:17:23.520Z,84.45
2017-01-31T00:17:49.618Z,85.11
2017-01-31T00:18:15.810Z,85.02
2017-01-31T00:18:41.928Z,85.3
2017-01-31T00:19:08.088Z,85.11
2017-01-31T00:19:34.215Z,85.11
2017-01-31T00:20:00.373Z,84.74
2017-01-31T00:20:26.473Z,84.74
2017-01-31T00:20:52.593Z,85.11
2017-01-31T00:21:18.790Z,84.92
2017-01-31T00:21:45.009Z,85.11
2017-01-31T00:22:11.187Z,84.92
2017-01-31T00:22:37.331Z,84.64
2017-01-31T00:23:03.527Z,84.83
2017-01-31T00:23:29.678Z,85.3
2017-01-31T00:23:55.848Z,84.83
2017-01-31T00:24:21.986Z,85.11
2017-01-31T00:24:48.090Z,85.02
2017-01-31T00:25:14.209Z,85.02
2017-01-31T00:25:40.308Z,85.3
2017-01-31T00:26:06.401Z,85.78
2017-01-31T00:26:32.539Z,85.49
2017-01-31T00:26:58.691Z,85.4
2017-01-31T00:27:24.799Z,85.68
2017-01-31T00:27:50.911Z,85.87
2017-01-31T00:28:17.129Z,86.07
2017-01-31T00:28:43.267Z,86.07
2017-01-31T00:29:09.389Z,85.97
2017-01-31T00:29:35.583Z,85.78
2017-01-31T00:30:01.724Z,85.78
2017-01-31T00:30:27.877Z,86.16
2017-01-31T00:30:53.971Z,85.87
2017-01-31T00:31:20.080Z,85.97
2017-01-31T00:31:46.261Z,85.97
2017-01-31T00:32:12.377Z,85.49
2017-01-31T00:32:38.480Z,86.07
2017-01-31T00:33:04.620Z,85.49
2017-01-31T00:33:30.728Z,85.87
2017-01-31T00:33:56.894Z,86.07
2017-01-31T00:34:23.029Z,86.07
2017-01-31T00:34:49.147Z,85.97
2017-01-31T00:35:15.271Z,85.97
2017-01-31T00:35:41.411Z,86.07
2017-01-31T00:36:07.529Z,85.21
2017-01-31T00:36:33.716Z,85.3
2017-01-31T00:36:59.852Z,85.87
2017-01-31T00:37:26.012Z,85.78
2017-01-31T00:37:52.183Z,85.78
2017-01-31T00:38:18.271Z,85.87
2017-01-31T00:38:44.444Z,85.4
2017-01-31T00:39:10.611Z,85.21
2017-01-31T00:39:36.780Z,85.59
2017-01-31T00:40:02.891Z,85.78
2017-01-31T00:40:29.003Z,85.49
2017-01-31T00:40:55.105Z,85.4
2017-01-31T00:41:21.268Z,85.4
2017-01-31T00:41:47.453Z,85.02
2017-01-31T00:42:13.619Z,85.49
2017-01-31T00:42:39.759Z,85.21
2017-01-31T00:43:05.941Z,85.4
2017-01-31T00:43:32.083Z,85.49
2017-01-31T00:43:58.286Z,85.97
2017-01-31T00:44:24.381Z,85.21
2017-01-31T00:44:50.544Z,85.4
2017-01-31T00:45:16.707Z,85.78
2017-01-31T00:45:42.872Z,85.02
2017-01-31T00:46:08.983Z,84.83
2017-01-31T00:46:35.088Z,85.11
2017-01-31T00:47:01.196Z,85.21
2017-01-31T00:47:27.314Z,85.21
2017-01-31T00:47:53.491Z,84.83
2017-01-31T00:48:19.673Z,85.4
2017-01-31T00:48:45.840Z,85.49
2017-01-31T00:49:12.033Z,85.49
2017-01-31T00:49:38.151Z,85.49
2017-01-31T00:50:04.330Z,84.83
2017-01-31T00:50:30.530Z,85.21
2017-01-31T00:50:56.677Z,84.83
2017-01-31T00:51:22.804Z,85.02
2017-01-31T00:51:48.961Z,85.11
2017-01-31T00:52:15.054Z,85.02
2017-01-31T00:52:41.207Z,84.92
2017-01-31T00:53:07.353Z,85.21
2017-01-31T00:53:33.504Z,84.74
2017-01-31T00:53:59.676Z,85.11
2017-01-31T00:54:25.826Z,84.64
2017-01-31T00:54:51.983Z,84.64
2017-01-31T00:55:18.150Z,84.64
2017-01-31T00:55:44.285Z,84.74
2017-01-31T00:56:10.432Z,84.83
2017-01-31T00:56:36.604Z,84.64
2017-01-31T00:57:02.697Z,84.64
2017-01-31T00:57:28.845Z,84.83
2017-01-31T00:57:55.046Z,84.45
2017-01-31T00:58:21.200Z,84.83
2017-01-31T00:58:47.293Z,84.74
2017-01-31T00:59:13.422Z,85.11
2017-01-31T00:59:39.527Z,84.92
2017-01-31T01:00:05.703Z,84.83
2017-01-31T01:00:31.863Z,85.02
2017-01-31T01:00:57.965Z,85.11
2017-01-31T01:01:24.102Z,85.4
2017-01-31T01:01:50.199Z,85.68
2017-01-31T01:02:16.399Z,85.11
2017-01-31T01:02:42.489Z,85.02
2017-01-31T01:03:08.661Z,85.4
2017-01-31T01:03:34.794Z,85.78
2017-01-31T01:04:00.912Z,85.4
2017-01-31T01:04:27.020Z,85.49
2017-01-31T01:04:53.169Z,85.21
2017-01-31T01:05:19.293Z,85.97
2017-01-31T01:05:45.485Z,86.07
2017-01-31T01:06:11.661Z,85.4
2017-01-31T01:06:37.762Z,85.49
2017-01-31T01:07:03.920Z,85.4
2017-01-31T01:07:30.073Z,85.49
2017-01-31T01:07:56.206Z,85.4
2017-01-31T01:08:22.379Z,85.4
2017-01-31T01:08:48.529Z,85.49
2017-01-31T01:09:14.649Z,85.4
2017-01-31T01:09:40.786Z,85.3
2017-01-31T01:10:06.903Z,84.92
2017-01-31T01:10:33.099Z,84.92
2017-01-31T01:10:59.238Z,85.4
2017-01-31T01:11:25.414Z,85.21
2017-01-31T01:11:51.606Z,85.4
2017-01-31T01:12:17.783Z,86.07
2017-01-31T01:12:43.942Z,85.68
2017-01-31T01:13:10.143Z,85.78
2017-01-31T01:13:36.335Z,85.21
2017-01-31T01:14:02.509Z,85.49
2017-01-31T01:14:28.663Z,85.59
2017-01-31T01:14:54.861Z,85.4
2017-01-31T01:15:20.996Z,85.49
2017-01-31T01:15:47.123Z,85.97
2017-01-31T01:16:13.319Z,85.59
2017-01-31T01:16:39.457Z,85.87
2017-01-31T01:17:05.612Z,85.97
2017-01-31T01:17:31.736Z,85.68
2017-01-31T01:17:57.867Z,85.68
2017-01-31T01:18:24.038Z,86.07
2017-01-31T01:18:50.169Z,86.07
2017-01-31T01:19:16.273Z,85.97
2017-01-31T01:19:42.409Z,85.59
2017-01-31T01:20:08.504Z,85.97
2017-01-31T01:20:34.686Z,86.44
2017-01-31T01:21:00.813Z,85.97
2017-01-31T01:21:26.919Z,85.78
2017-01-31T01:21:53.026Z,86.25
2017-01-31T01:22:19.190Z,86.44
2017-01-31T01:22:45.323Z,86.16
2017-01-31T01:23:11.489Z,85.97
2017-01-31T01:23:37.636Z,86.16
2017-01-31T01:24:03.763Z,86.44
2017-01-31T01:24:29.893Z,86.07
2017-01-31T01:24:56.101Z,86.07
2017-01-31T01:25:22.211Z,86.07
2017-01-31T01:25:48.355Z,86.07
2017-01-31T01:26:14.507Z,86.16
2017-01-31T01:26:40.659Z,86.35
2017-01-31T01:27:06.777Z,86.54
2017-01-31T01:27:32.869Z,86.16
2017-01-31T01:27:59.010Z,86.16
2017-01-31T01:28:25.098Z,86.16
2017-01-31T01:28:51.217Z,86.07
2017-01-31T01:29:17.389Z,86.91
2017-01-31T01:29:43.525Z,86.44
2017-01-31T01:30:09.720Z,86.54
2017-01-31T01:30:35.821Z,86.72
2017-01-31T01:31:02.014Z,86.82
2017-01-31T01:31:28.128Z,85.97
2017-01-31T01:31:54.264Z,86.25
2017-01-31T01:32:20.372Z,86.07
2017-01-31T01:32:46.512Z,86.44
2017-01-31T01:33:12.632Z,86.16
2017-01-31T01:33:38.775Z,86.25
2017-01-31T01:34:04.967Z,86.16
2017-01-31T01:34:31.162Z,86.16
2017-01-31T01:34:57.330Z,86.72
2017-01-31T01:35:23.461Z,86.91
2017-01-31T01:35:49.625Z,86.63
2017-01-31T01:36:15.782Z,86.25
2017-01-31T01:36:41.932Z,86.91
2017-01-31T01:37:08.132Z,86.91
2017-01-31T01:37:34.245Z,86.82
2017-01-31T01:38:00.466Z,86.82
2017-01-31T01:38:26.579Z,86.72
2017-01-31T01:38:52.736Z,86.25
2017-01-31T01:39:18.894Z,86.25
2017-01-31T01:39:45.029Z,86.35
2017-01-31T01:40:11.153Z,86.16
2017-01-31T01:40:37.255Z,86.16
2017-01-31T01:41:03.401Z,86.25
2017-01-31T01:41:29.527Z,86.07
2017-01-31T01:41:55.658Z,86.16
2017-01-31T01:42:21.815Z,86.25
2017-01-31T01:42:47.950Z,86.07
2017-01-31T01:43:14.147Z,86.16
2017-01-31T01:43:40.295Z,85.97
2017-01-31T01:44:06.445Z,86.16
2017-01-31T01:44:32.602Z,86.16
2017-01-31T01:44:58.796Z,85.87
2017-01-31T01:45:24.912Z,86.07
2017-01-31T01:45:51.089Z,86.35
2017-01-31T01:46:17.255Z,86.07
2017-01-31T01:46:43.393Z,85.97
2017-01-31T01:47:09.518Z,86.25
2017-01-31T01:47:35.713Z,86.25
2017-01-31T01:48:01.850Z,85.97
2017-01-31T01:48:27.992Z,85.59
2017-01-31T01:48:54.090Z,85.78
2017-01-31T01:49:20.248Z,85.59
2017-01-31T01:49:46.408Z,85.78
2017-01-31T01:50:12.492Z,85.78
2017-01-31T01:50:38.621Z,86.07
2017-01-31T01:51:04.760Z,85.3
2017-01-31T01:51:30.897Z,85.3
2017-01-31T01:51:57.024Z,85.21
2017-01-31T01:52:23.157Z,85.3
2017-01-31T01:52:49.310Z,85.4
2017-01-31T01:53:15.397Z,85.49
2017-01-31T01:53:41.544Z,85.4
2017-01-31T01:54:07.699Z,84.64
2017-01-31T01:54:33.856Z,84.83
2017-01-31T01:55:00.029Z,85.3
2017-01-31T01:55:26.129Z,85.02
2017-01-31T01:55:52.260Z,85.11
2017-01-31T01:56:18.416Z,85.11
2017-01-31T01:56:44.536Z,84.74
2017-01-31T01:57:10.702Z,85.3
2017-01-31T01:57:36.819Z,85.3
2017-01-31T01:58:02.941Z,84.74
2017-01-31T01:58:29.104Z,85.11
2017-01-31T01:58:55.264Z,84.64
2017-01-31T01:59:21.450Z,84.92
2017-01-31T01:59:47.608Z,84.83
2017-01-31T02:00:13.758Z,85.11
2017-01-31T02:00:39.952Z,84.45
2017-01-31T02:01:06.104Z,84.55
2017-01-31T02:01:32.220Z,84.83
2017-01-31T02:01:58.355Z,84.92
2017-01-31T02:02:24.503Z,84.36
2017-01-31T02:02:50.597Z,84.26
2017-01-31T02:03:16.701Z,84.17
2017-01-31T02:03:42.827Z,84.74
2017-01-31T02:04:08.948Z,85.02
2017-01-31T02:04:35.076Z,85.02
2017-01-31T02:05:01.247Z,84.92
2017-01-31T02:05:27.391Z,84.92
2017-01-31T02:05:53.549Z,85.4
2017-01-31T02:06:19.659Z,84.83
2017-01-31T02:06:45.792Z,84.92
2017-01-31T02:07:11.895Z,85.3
2017-01-31T02:07:38.038Z,84.74
2017-01-31T02:08:04.162Z,85.3
2017-01-31T02:08:30.376Z,84.55
2017-01-31T02:08:56.500Z,84.83
2017-01-31T02:09:22.676Z,84.83
2017-01-31T02:09:48.810Z,84.74
2017-01-31T02:10:14.951Z,84.74
2017-01-31T02:10:41.075Z,84.74
2017-01-31T02:11:07.234Z,84.83
2017-01-31T02:11:33.390Z,84.26
2017-01-31T02:11:59.562Z,85.02
2017-01-31T02:12:25.678Z,85.02
2017-01-31T02:12:51.829Z,84.64
2017-01-31T02:13:17.960Z,84.83
2017-01-31T02:13:44.142Z,85.11
2017-01-31T02:14:10.258Z,85.3
2017-01-31T02:14:36.393Z,84.74
2017-01-31T02:15:02.488Z,84.83
2017-01-31T02:15:28.584Z,84.55
2017-01-31T02:15:54.741Z,84.92
2017-01-31T02:16:20.868Z,84.17
2017-01-31T02:16:46.968Z,84.07
2017-01-31T02:17:13.156Z,84.36
2017-01-31T02:17:39.236Z,84.64
2017-01-31T02:18:05.397Z,84.74
2017-01-31T02:18:31.565Z,84.26
2017-01-31T02:18:57.714Z,84.26
2017-01-31T02:19:23.846Z,84.17
2017-01-31T02:19:49.974Z,83.97
2017-01-31T02:20:16.094Z,84.74
2017-01-31T02:20:42.222Z,84.92
2017-01-31T02:21:08.385Z,84.64
2017-01-31T02:21:34.573Z,84.74
2017-01-31T02:22:00.759Z,84.55
2017-01-31T02:22:26.930Z,84.36
2017-01-31T02:22:53.036Z,85.11
2017-01-31T02:23:19.199Z,84.74
2017-01-31T02:23:45.316Z,84.83
2017-01-31T02:24:11.481Z,85.02
2017-01-31T02:24:37.641Z,84.74
2017-01-31T02:25:03.783Z,84.92
2017-01-31T02:25:29.961Z,84.64
2017-01-31T02:25:56.089Z,84.36
2017-01-31T02:26:22.250Z,84.74
2017-01-31T02:26:48.400Z,84.74
2017-01-31T02:27:14.567Z,83.97
2017-01-31T02:27:40.684Z,84.26
2017-01-31T02:28:06.798Z,84.17
2017-01-31T02:28:32.941Z,84.07
2017-01-31T02:28:59.067Z,84.07
2017-01-31T02:29:25.209Z,84.07
2017-01-31T02:29:51.337Z,84.17
2017-01-31T02:30:17.462Z,84.17
2017-01-31T02:30:43.632Z,84.45
2017-01-31T02:31:09.771Z,84.17
2017-01-31T02:31:35.923Z,84.74
2017-01-31T02:32:02.055Z,84.74
2017-01-31T02:32:28.176Z,84.64
2017-01-31T02:32:54.363Z,84.74
2017-01-31T02:33:20.507Z,84.64
2017-01-31T02:33:46.614Z,84.07
2017-01-31T02:34:12.723Z,84.07
2017-01-31T02:34:38.885Z,84.17
2017-01-31T02:35:04.991Z,84.45
2017-01-31T02:35:31.107Z,83.97
2017-01-31T02:35:57.260Z,84.26
2017-01-31T02:36:23.369Z,83.97
2017-01-31T02:36:49.488Z,84.07
2017-01-31T02:37:15.639Z,83.88
2017-01-31T02:37:41.777Z,83.97
2017-01-31T02:38:07.901Z,84.26
2017-01-31T02:38:34.065Z,83.97
2017-01-31T02:39:00.205Z,83.97
2017-01-31T02:39:26.327Z,83.97
2017-01-31T02:39:52.499Z,83.88
2017-01-31T02:40:18.617Z,83.88
2017-01-31T02:40:44.746Z,84.26
2017-01-31T02:41:10.903Z,83.97
2017-01-31T02:41:37.022Z,84.07
2017-01-31T02:42:03.136Z,84.55
2017-01-31T02:42:29.279Z,84.45
2017-01-31T02:42:55.431Z,84.07
2017-01-31T02:43:21.516Z,84.26
2017-01-31T02:43:47.616Z,84.07
2017-01-31T02:44:13.735Z,83.97
2017-01-31T02:44:39.888Z,83.78
2017-01-31T02:45:06.018Z,83.88
2017-01-31T02:45:32.133Z,83.69
2017-01-31T02:45:58.306Z,83.69
2017-01-31T02:46:24.457Z,83.5
2017-01-31T02:46:50.630Z,83.4
2017-01-31T02:47:16.761Z,83.12
2017-01-31T02:47:42.974Z,83.12
2017-01-31T02:48:09.116Z,83.22
2017-01-31T02:48:35.297Z,83.12
2017-01-31T02:49:01.436Z,83.31
2017-01-31T02:49:27.574Z,83.22
2017-01-31T02:49:53.762Z,83.03
2017-01-31T02:50:19.926Z,83.12
2017-01-31T02:50:46.039Z,83.22
2017-01-31T02:51:12.193Z,82.93
2017-01-31T02:51:38.341Z,82.84
2017-01-31T02:52:04.444Z,83.22
2017-01-31T02:52:30.617Z,82.84
2017-01-31T02:52:56.704Z,82.84
2017-01-31T02:53:22.830Z,83.12
2017-01-31T02:53:49.027Z,83.12
2017-01-31T02:54:15.143Z,82.65
2017-01-31T02:54:41.295Z,82.93
2017-01-31T02:55:07.455Z,82.84
2017-01-31T02:55:33.581Z,83.4
2017-01-31T02:55:59.712Z,83.12
2017-01-31T02:56:25.878Z,82.93
2017-01-31T02:56:52.010Z,82.93
2017-01-31T02:57:18.126Z,82.84
2017-01-31T02:57:44.242Z,82.84
2017-01-31T02:58:10.339Z,82.93
2017-01-31T02:58:36.504Z,83.4
2017-01-31T02:59:02.653Z,83.12
2017-01-31T02:59:28.736Z,83.31
2017-01-31T02:59:54.875Z,83.03
2017-01-31T03:00:21.002Z,83.12
2017-01-31T03:00:47.149Z,83.4
2017-01-31T03:01:13.305Z,83.22
2017-01-31T03:01:39.451Z,83.31
2017-01-31T03:02:05.557Z,83.4
2017-01-31T03:02:31.706Z,83.03
2017-01-31T03:02:57.815Z,83.22
2017-01-31T03:03:23.986Z,83.12
2017-01-31T03:03:50.106Z,82.74
2017-01-31T03:04:16.295Z,82.65
2017-01-31T03:04:42.463Z,82.46
2017-01-31T03:05:08.565Z,82.93
2017-01-31T03:05:34.680Z,82.93
2017-01-31T03:06:00.785Z,83.03
2017-01-31T03:06:26.953Z,83.22
2017-01-31T03:06:53.112Z,83.07
2017-01-31T03:07:19.243Z,82.65
2017-01-31T03:07:45.404Z,82.74
2017-01-31T03:08:11.547Z,82.84
2017-01-31T03:08:37.691Z,82.84
2017-01-31T03:09:03.906Z,82.17
2017-01-31T03:09:30.087Z,82.36
2017-01-31T03:09:56.202Z,82.46
2017-01-31T03:10:22.393Z,82.84
2017-01-31T03:10:48.490Z,82.36
2017-01-31T03:11:14.604Z,82.55
2017-01-31T03:11:40.740Z,82.17
2017-01-31T03:12:06.898Z,82.74
2017-01-31T03:12:33.070Z,82.65
2017-01-31T03:12:59.220Z,82.74
2017-01-31T03:13:25.350Z,82.46
2017-01-31T03:13:51.485Z,82.65
2017-01-31T03:14:17.635Z,82.36
2017-01-31T03:14:43.807Z,82.36
2017-01-31T03:15:09.921Z,82.74
2017-01-31T03:15:36.019Z,82.55
2017-01-31T03:16:02.156Z,83.4
2017-01-31T03:16:28.311Z,83.22
2017-01-31T03:16:54.449Z,82.84
2017-01-31T03:17:20.558Z,82.84
2017-01-31T03:17:46.710Z,82.84
2017-01-31T03:18:12.866Z,82.46
2017-01-31T03:18:38.986Z,82.55
2017-01-31T03:19:05.136Z,82.74
2017-01-31T03:19:31.329Z,82.74
2017-01-31T03:19:57.443Z,82.74
2017-01-31T03:20:23.607Z,82.84
2017-01-31T03:20:49.771Z,82.74
2017-01-31T03:21:15.846Z,82.36
2017-01-31T03:21:41.937Z,82.46
2017-01-31T03:22:08.076Z,82.36
2017-01-31T03:22:34.292Z,82.55
2017-01-31T03:23:00.411Z,82.84
2017-01-31T03:23:26.560Z,82.84
2017-01-31T03:23:52.710Z,82.55
2017-01-31T03:24:18.927Z,82.46
2017-01-31T03:24:45.046Z,82.55
2017-01-31T03:25:11.165Z,82.84
2017-01-31T03:25:37.273Z,82.74
2017-01-31T03:26:03.376Z,82.84
2017-01-31T03:26:29.490Z,82.08
2017-01-31T03:26:55.649Z,82.74
2017-01-31T03:27:21.815Z,82.46
2017-01-31T03:27:47.924Z,82.65
2017-01-31T03:28:14.085Z,82.55
2017-01-31T03:28:40.218Z,82.93
2017-01-31T03:29:06.302Z,82.93
2017-01-31T03:29:32.451Z,82.36
2017-01-31T03:29:58.626Z,82.55
2017-01-31T03:30:24.815Z,82.55
2017-01-31T03:30:51.010Z,82.46
2017-01-31T03:31:17.163Z,82.93
2017-01-31T03:31:43.286Z,82.55
2017-01-31T03:32:09.429Z,82.36
2017-01-31T03:32:35.567Z,82.65
2017-01-31T03:33:01.696Z,82.93
2017-01-31T03:33:27.831Z,82.74
2017-01-31T03:33:53.951Z,83.22
2017-01-31T03:34:20.035Z,82.84
2017-01-31T03:34:46.190Z,82.36
2017-01-31T03:35:12.336Z,82.36
2017-01-31T03:35:38.472Z,83.31
2017-01-31T03:36:04.561Z,82.84
2017-01-31T03:36:30.686Z,82.27
2017-01-31T03:36:56.846Z,82.36
2017-01-31T03:37:22.992Z,82.55
2017-01-31T03:37:49.077Z,82.36
2017-01-31T03:38:15.247Z,83.31
2017-01-31T03:38:41.397Z,82.84
2017-01-31T03:39:07.519Z,82.65
2017-01-31T03:39:33.650Z,82.55
2017-01-31T03:39:59.838Z,82.93
2017-01-31T03:40:25.933Z,83.12
2017-01-31T03:40:52.086Z,83.59
2017-01-31T03:41:18.208Z,84.26
2017-01-31T03:41:44.313Z,83.78
2017-01-31T03:42:10.488Z,83.4
2017-01-31T03:42:36.586Z,83.4
2017-01-31T03:43:02.716Z,82.93
2017-01-31T03:43:28.844Z,82.93
2017-01-31T03:43:55.004Z,83.12
2017-01-31T03:44:21.162Z,83.03
2017-01-31T03:44:47.295Z,83.12
2017-01-31T03:45:13.442Z,83.22
2017-01-31T03:45:39.566Z,83.12
2017-01-31T03:46:05.720Z,83.12
2017-01-31T03:46:31.848Z,83.12
2017-01-31T03:46:57.975Z,82.84
2017-01-31T03:47:24.137Z,82.93
2017-01-31T03:47:50.243Z,82.74
2017-01-31T03:48:16.400Z,82.55
2017-01-31T03:48:42.515Z,82.08
2017-01-31T03:49:08.694Z,82.93
2017-01-31T03:49:34.839Z,82.74
2017-01-31T03:50:00.994Z,82.55
2017-01-31T03:50:27.117Z,82.55
2017-01-31T03:50:53.250Z,82.93
2017-01-31T03:51:19.374Z,82.46
2017-01-31T03:51:45.544Z,82.46
2017-01-31T03:52:11.716Z,82.93
2017-01-31T03:52:37.867Z,82.36
2017-01-31T03:53:03.996Z,82.84
2017-01-31T03:53:30.141Z,82.74
2017-01-31T03:53:56.332Z,82.46
2017-01-31T03:54:22.455Z,82.17
2017-01-31T03:54:48.581Z,82.46
2017-01-31T03:55:14.669Z,82.36
2017-01-31T03:55:40.806Z,82.36
2017-01-31T03:56:06.948Z,82.65
2017-01-31T03:56:33.070Z,82.93
2017-01-31T03:56:59.175Z,82.84
2017-01-31T03:57:25.366Z,82.74
2017-01-31T03:57:51.476Z,82.17
2017-01-31T03:58:17.694Z,82.93
2017-01-31T03:58:43.880Z,82.55
2017-01-31T03:59:09.988Z,82.27
2017-01-31T03:59:36.143Z,82.27
2017-01-31T04:00:02.345Z,82.27
2017-01-31T04:00:28.505Z,81.88
2017-01-31T04:00:54.680Z,82.46
2017-01-31T04:01:20.787Z,82.17
2017-01-31T04:01:46.952Z,82.55
2017-01-31T04:02:13.484Z,82.17
2017-01-31T04:02:39.694Z,82.36
2017-01-31T04:03:05.823Z,82.08
2017-01-31T04:03:32.018Z,82.17
2017-01-31T04:03:58.156Z,81.6
2017-01-31T04:04:24.255Z,81.6
2017-01-31T04:04:50.424Z,81.79
2017-01-31T04:05:16.537Z,82.17
2017-01-31T04:05:42.651Z,81.79
2017-01-31T04:06:08.800Z,82.17
2017-01-31T04:06:34.889Z,81.88
2017-01-31T04:07:01.033Z,82.17
2017-01-31T04:07:27.162Z,81.84
2017-01-31T04:07:53.292Z,81.84
2017-01-31T04:08:19.419Z,82.21
2017-01-31T04:08:45.541Z,81.84
2017-01-31T04:09:11.683Z,82.03
2017-01-31T04:09:37.850Z,82.31
2017-01-31T04:10:03.994Z,81.84
2017-01-31T04:10:30.138Z,81.65
2017-01-31T04:10:56.356Z,81.65
2017-01-31T04:11:22.487Z,81.32
2017-01-31T04:11:48.598Z,81.32
2017-01-31T04:12:14.728Z,81.41
2017-01-31T04:12:40.860Z,82.08
2017-01-31T04:13:07.003Z,81.98
2017-01-31T04:13:33.158Z,81.7
2017-01-31T04:13:59.271Z,82.17
2017-01-31T04:14:25.438Z,81.98
2017-01-31T04:14:51.607Z,82.27
2017-01-31T04:15:17.742Z,82.27
2017-01-31T04:15:43.872Z,82.46
2017-01-31T04:16:10.071Z,82.46
2017-01-31T04:16:36.259Z,82.55
2017-01-31T04:17:02.375Z,82.27
2017-01-31T04:17:28.555Z,82.84
2017-01-31T04:17:54.640Z,82.74
2017-01-31T04:18:20.819Z,82.17
2017-01-31T04:18:47.009Z,82.55
2017-01-31T04:19:13.134Z,82.74
2017-01-31T04:19:39.247Z,82.65
2017-01-31T04:20:05.419Z,82.46
2017-01-31T04:20:31.571Z,82.46
2017-01-31T04:20:57.693Z,82.65
2017-01-31T04:21:23.833Z,82.46
2017-01-31T04:21:49.990Z,82.36
2017-01-31T04:22:16.113Z,82.74
2017-01-31T04:22:42.242Z,82.55
2017-01-31T04:23:08.380Z,82.27
2017-01-31T04:23:34.493Z,82.74
2017-01-31T04:24:00.644Z,82.74
2017-01-31T04:24:26.777Z,82.36
2017-01-31T04:24:52.921Z,82.27
2017-01-31T04:25:19.051Z,82.36
2017-01-31T04:25:45.240Z,82.93
2017-01-31T04:26:11.429Z,82.46
2017-01-31T04:26:37.585Z,82.27
2017-01-31T04:27:03.695Z,82.55
2017-01-31T04:27:29.849Z,82.97
2017-01-31T04:27:56.012Z,82.36
2017-01-31T04:28:22.153Z,82.08
2017-01-31T04:28:48.270Z,82.08
2017-01-31T04:29:14.404Z,82.74
2017-01-31T04:29:40.523Z,82.55
2017-01-31T04:30:06.640Z,82.36
2017-01-31T04:30:32.737Z,82.93
2017-01-31T04:30:58.866Z,82.27
2017-01-31T04:31:25.029Z,82.93
2017-01-31T04:31:51.202Z,82.46
2017-01-31T04:32:17.322Z,82.55
2017-01-31T04:32:43.461Z,82.36
2017-01-31T04:33:09.552Z,82.74
2017-01-31T04:33:35.670Z,82.84
2017-01-31T04:34:01.897Z,82.84
2017-01-31T04:34:27.993Z,82.74
2017-01-31T04:34:54.083Z,82.65
2017-01-31T04:35:20.218Z,82.55
2017-01-31T04:35:46.342Z,82.46
2017-01-31T04:36:12.468Z,82.46
2017-01-31T04:36:38.591Z,82.74
2017-01-31T04:37:04.750Z,82.84
2017-01-31T04:37:30.853Z,83.03
2017-01-31T04:37:56.952Z,82.55
2017-01-31T04:38:23.062Z,82.55
2017-01-31T04:38:49.244Z,83.03
2017-01-31T04:39:15.378Z,82.74
2017-01-31T04:39:41.488Z,82.55
2017-01-31T04:40:07.654Z,82.74
2017-01-31T04:40:33.756Z,82.55
2017-01-31T04:40:59.915Z,82.55
2017-01-31T04:41:26.079Z,82.74
2017-01-31T04:41:52.248Z,82.74
2017-01-31T04:42:18.366Z,82.65
2017-01-31T04:42:44.485Z,82.74
2017-01-31T04:43:10.649Z,82.36
2017-01-31T04:43:36.794Z,82.17
2017-01-31T04:44:02.882Z,82.46
2017-01-31T04:44:29.078Z,82.74
2017-01-31T04:44:55.207Z,82.27
2017-01-31T04:45:21.318Z,82.84
2017-01-31T04:45:47.481Z,82.74
2017-01-31T04:46:13.603Z,82.74
2017-01-31T04:46:39.747Z,82.46
2017-01-31T04:47:05.852Z,82.46
2017-01-31T04:47:31.939Z,82.17
2017-01-31T04:47:58.077Z,82.08
2017-01-31T04:48:24.258Z,82.08
2017-01-31T04:48:50.401Z,82.27
2017-01-31T04:49:16.563Z,82.36
2017-01-31T04:49:42.664Z,82.08
2017-01-31T04:50:08.805Z,82.17
2017-01-31T04:50:34.967Z,81.79
2017-01-31T04:51:01.107Z,81.7
2017-01-31T04:51:27.241Z,81.7
2017-01-31T04:51:53.371Z,81.51
2017-01-31T04:52:19.500Z,81.79
2017-01-31T04:52:45.590Z,81.98
2017-01-31T04:53:11.750Z,82.12
2017-01-31T04:53:37.887Z,82.31
2017-01-31T04:54:04.016Z,82.21
2017-01-31T04:54:30.185Z,82.21
2017-01-31T04:54:56.380Z,81.84
2017-01-31T04:55:22.508Z,81.93
2017-01-31T04:55:48.644Z,82.21
2017-01-31T04:56:14.787Z,81.6
2017-01-31T04:56:40.879Z,82.17
2017-01-31T04:57:07.019Z,81.88
2017-01-31T04:57:33.138Z,81.51
2017-01-31T04:57:59.284Z,81.7
2017-01-31T04:58:25.440Z,82.21
2017-01-31T04:58:51.586Z,82.36
2017-01-31T04:59:17.749Z,81.74
2017-01-31T04:59:43.919Z,81.93
2017-01-31T05:00:10.094Z,81.84
2017-01-31T05:00:36.176Z,81.55
2017-01-31T05:01:02.302Z,81.74
2017-01-31T05:01:28.413Z,82.03
2017-01-31T05:01:54.582Z,82.03
2017-01-31T05:02:20.675Z,81.74
2017-01-31T05:02:46.797Z,81.93
2017-01-31T05:03:12.924Z,81.51
2017-01-31T05:03:39.055Z,81.55
2017-01-31T05:04:05.210Z,82.08
2017-01-31T05:04:31.379Z,81.79
2017-01-31T05:04:57.607Z,81.6
2017-01-31T05:05:23.795Z,81.88
2017-01-31T05:05:49.923Z,81.6
2017-01-31T05:06:16.057Z,82.27
2017-01-31T05:06:42.256Z,82.17
2017-01-31T05:07:08.357Z,82.08
2017-01-31T05:07:34.476Z,81.98
2017-01-31T05:08:00.579Z,82.08
2017-01-31T05:08:26.778Z,82.08
2017-01-31T05:08:52.888Z,82.17
2017-01-31T05:09:19.009Z,82.55
2017-01-31T05:09:45.140Z,82.55
2017-01-31T05:10:11.304Z,82.74
2017-01-31T05:10:37.403Z,82.74
2017-01-31T05:11:03.521Z,82.93
2017-01-31T05:11:29.675Z,83.4
2017-01-31T05:11:55.820Z,82.36
2017-01-31T05:12:21.961Z,82.74
2017-01-31T05:12:48.083Z,82.65
2017-01-31T05:13:14.251Z,83.4
2017-01-31T05:13:40.393Z,82.84
2017-01-31T05:14:06.534Z,82.88
2017-01-31T05:14:32.670Z,83.07
2017-01-31T05:14:58.796Z,82.78
2017-01-31T05:15:24.951Z,82.65
2017-01-31T05:15:51.043Z,82.78
2017-01-31T05:16:17.196Z,82.84
2017-01-31T05:16:43.301Z,82.55
2017-01-31T05:17:09.420Z,82.36
2017-01-31T05:17:35.559Z,82.46
2017-01-31T05:18:01.694Z,82.93
2017-01-31T05:18:27.834Z,82.65
2017-01-31T05:18:53.948Z,82.46
2017-01-31T05:19:20.125Z,82.74
2017-01-31T05:19:46.304Z,82.55
2017-01-31T05:20:12.441Z,82.84
2017-01-31T05:20:38.550Z,82.55
2017-01-31T05:21:04.669Z,82.74
2017-01-31T05:21:30.831Z,82.74
2017-01-31T05:21:56.958Z,82.74
2017-01-31T05:22:23.121Z,82.74
2017-01-31T05:22:49.296Z,82.88
2017-01-31T05:23:15.414Z,82.84
2017-01-31T05:23:41.508Z,82.59
2017-01-31T05:24:07.665Z,82.59
2017-01-31T05:24:33.849Z,82.78
2017-01-31T05:25:00.017Z,82.4
2017-01-31T05:25:26.164Z,82.4
2017-01-31T05:25:52.299Z,82.78
2017-01-31T05:26:18.433Z,82.5
2017-01-31T05:26:44.596Z,82.59
2017-01-31T05:27:10.750Z,82.59
2017-01-31T05:27:36.870Z,82.21
2017-01-31T05:28:03.008Z,82.21
2017-01-31T05:28:29.145Z,82.03
2017-01-31T05:28:55.295Z,82.31
2017-01-31T05:29:21.457Z,81.84
2017-01-31T05:29:47.616Z,81.84
2017-01-31T05:30:13.766Z,81.88
2017-01-31T05:30:39.856Z,82.08
2017-01-31T05:31:05.961Z,82.27
2017-01-31T05:31:32.178Z,81.98
2017-01-31T05:31:58.394Z,81.88
2017-01-31T05:32:24.484Z,81.84
2017-01-31T05:32:50.604Z,81.45
2017-01-31T05:33:16.772Z,81.93
2017-01-31T05:33:42.927Z,81.79
2017-01-31T05:34:09.065Z,82.21
2017-01-31T05:34:35.266Z,81.51
2017-01-31T05:35:01.433Z,82.21
2017-01-31T05:35:27.550Z,82.03
2017-01-31T05:35:53.685Z,82.08
2017-01-31T05:36:19.821Z,82.21
2017-01-31T05:36:45.927Z,81.65
2017-01-31T05:37:12.112Z,81.84
2017-01-31T05:37:38.265Z,82.21